Umm Slal — V7PW3 — position and weather

sailwx.info

Track history (hours):
 
Tides and Currents Weather Stations Pressure Air Temp Water Temp Dewpoint Dewpoint Depression Visibility Wind Speed Wind Dir Waves Ship Positions

Umm Slal

Last reported at 2014-Aug-17 12:24 UTC. Time now 2014-Aug-21 16:03 UTC.
Position N 38°37' E 122°05'.

Length 345 m; draft 9.5 m.

Type: Ship (hazmat cat A). MMSI: 538003300.

Date/timePositionNaut miles runAvg speedWind from/ knotsBaromVisibWave heightAir tempDewpointWater temp
2014-Aug-17 12:24N 38°37' E 122°05'1315.4
2014-Aug-17 11:33N 38°48' E 121°57'9 0.2
2014-Aug-15 22:05N 38°57' E 121°54'3 4.9
2014-Aug-15 21:23N 38°54' E 121°54'8 8.3
2014-Aug-15 20:25N 38°46' E 121°57'1210.6
2014-Aug-15 19:16N 38°35' E 122°05'1615.3
2014-Aug-15 18:15N 38°26' E 122°21'1115.3
2014-Aug-15 17:30N 38°20' E 122°33'7715.5
2014-Aug-15 12:32N 37°26' E 123°43'  
Track history (hours):
 
Tides and Currents Weather Stations Pressure Air Temp Water Temp Dewpoint Dewpoint Depression Visibility Wind Speed Wind Dir Waves Ship Positions

Umm Slal

Last reported at 2014-Aug-17 12:24 UTC. Time now 2014-Aug-21 16:03 UTC.
Position N 38°37' E 122°05'.

Length 345 m; draft 9.5 m.

Type: Ship (hazmat cat A). MMSI: 538003300.

Date/timePositionNaut miles runAvg speedWind from/ knotsBaromVisibWave heightAir tempDewpointWater temp
2014-Aug-17 12:24N 38°37' E 122°05'1315.4
2014-Aug-17 11:33N 38°48' E 121°57'9 0.2
2014-Aug-15 22:05N 38°57' E 121°54'3 4.9
2014-Aug-15 21:23N 38°54' E 121°54'8 8.3
2014-Aug-15 20:25N 38°46' E 121°57'1210.6
2014-Aug-15 19:16N 38°35' E 122°05'1615.3
2014-Aug-15 18:15N 38°26' E 122°21'1115.3
2014-Aug-15 17:30N 38°20' E 122°33'7715.5
2014-Aug-15 12:32N 37°26' E 123°43'  

Dump ship's entire track history